Weather at Cincinnati Municipal Airport Lunken Field

Public forecast

Using degrees Fahrenheit for public forecast. Weather courtesy of forecast.io.

Current aviation weather report (METAR) for Cincinnati Municipal Airport Lunken Field

Retrieved 2021/07/29 04:53 UTC (49 minutes ago):

KLUK 290453Z AUTO 21003KT 8SM CLR 23/21 A3001 RMK AO2 SLP156 T02280211 403280178

Aviation forecast (TAF) for Cincinnati Municipal Airport Lunken Field

Retrieved 2021-07-29 00:57 UTC (5 hours ago):

TAF KLUK 282354Z 2900/2924 VRB03KT P6SM FEW040 SCT250 FM290700 00000KT 3SM BR SCT250 FM290800 00000KT 2SM BR SCT250 TEMPO 2908/2912 1/2SM FG SCT002 FM291300 22008KT P6SM SCT025 BKN250 FM291700 23011G19KT P6SM SCT035 BKN250 FM292100 24012G20KT P6SM -SHRA VCTS BKN040CB OVC250 TEMPO 2923/2924 32020G35KT 2SM TSRA